sensor_id;sensor_type;location;lat;lon;timestamp;P1;durP1;ratioP1;P2;durP2;ratioP2
36931;SDS011;22847;42.654;23.370;2022-08-01T00:00:34;3.75;;;2.33;;
36931;SDS011;22847;42.654;23.370;2022-08-01T00:03:00;4.57;;;2.60;;
36931;SDS011;22847;42.654;23.370;2022-08-01T00:05:26;7.03;;;2.42;;
36931;SDS011;22847;42.654;23.370;2022-08-01T00:07:51;2.50;;;2.15;;
36931;SDS011;22847;42.654;23.370;2022-08-01T00:10:17;6.90;;;2.35;;
36931;SDS011;22847;42.654;23.370;2022-08-01T00:12:43;7.30;;;2.30;;
36931;SDS011;22847;42.654;23.370;2022-08-01T00:15:10;2.65;;;1.90;;
36931;SDS011;22847;42.654;23.370;2022-08-01T00:17:37;4.93;;;1.98;;
36931;SDS011;22847;42.654;23.370;2022-08-01T00:20:05;2.75;;;2.10;;
36931;SDS011;22847;42.654;23.370;2022-08-01T00:22:32;2.72;;;2.20;;
36931;SDS011;22847;42.654;23.370;2022-08-01T00:24:58;3.70;;;2.10;;
36931;SDS011;22847;42.654;23.370;2022-08-01T00:27:23;3.20;;;2.10;;
36931;SDS011;22847;42.654;23.370;2022-08-01T00:29:49;3.03;;;2.00;;
36931;SDS011;22847;42.654;23.370;2022-08-01T00:32:14;4.53;;;2.13;;
36931;SDS011;22847;42.654;23.370;2022-08-01T00:34:40;3.58;;;2.40;;
36931;SDS011;22847;42.654;23.370;2022-08-01T00:37:05;4.35;;;2.80;;
36931;SDS011;22847;42.654;23.370;2022-08-01T00:39:31;6.97;;;3.35;;
36931;SDS011;22847;42.654;23.370;2022-08-01T00:41:58;5.57;;;3.15;;
36931;SDS011;22847;42.654;23.370;2022-08-01T00:44:24;3.67;;;3.38;;
36931;SDS011;22847;42.654;23.370;2022-08-01T00:46:49;8.85;;;3.47;;
36931;SDS011;22847;42.654;23.370;2022-08-01T00:49:15;4.15;;;3.75;;
36931;SDS011;22847;42.654;23.370;2022-08-01T00:51:40;4.32;;;3.80;;
36931;SDS011;22847;42.654;23.370;2022-08-01T00:54:06;9.13;;;4.68;;
36931;SDS011;22847;42.654;23.370;2022-08-01T00:56:31;6.22;;;3.65;;
36931;SDS011;22847;42.654;23.370;2022-08-01T00:58:57;5.22;;;3.95;;
36931;SDS011;22847;42.654;23.370;2022-08-01T01:01:24;4.90;;;3.97;;
36931;SDS011;22847;42.654;23.370;2022-08-01T01:03:50;5.78;;;3.85;;
36931;SDS011;22847;42.654;23.370;2022-08-01T01:11:46;5.07;;;3.60;;
36931;SDS011;22847;42.654;23.370;2022-08-01T01:14:37;7.30;;;3.97;;
36931;SDS011;22847;42.654;23.370;2022-08-01T01:17:11;4.25;;;3.70;;
36931;SDS011;22847;42.654;23.370;2022-08-01T01:19:41;3.65;;;3.22;;
36931;SDS011;22847;42.654;23.370;2022-08-01T01:25:24;3.72;;;3.35;;
36931;SDS011;22847;42.654;23.370;2022-08-01T01:28:08;6.40;;;3.30;;
36931;SDS011;22847;42.654;23.370;2022-08-01T01:30:41;10.57;;;4.00;;
36931;SDS011;22847;42.654;23.370;2022-08-01T01:33:10;6.63;;;3.97;;
36931;SDS011;22847;42.654;23.370;2022-08-01T01:35:39;5.82;;;4.13;;
36931;SDS011;22847;42.654;23.370;2022-08-01T01:38:23;4.88;;;3.97;;
36931;SDS011;22847;42.654;23.370;2022-08-01T01:40:52;7.30;;;4.25;;
36931;SDS011;22847;42.654;23.370;2022-08-01T01:43:18;7.05;;;4.00;;
36931;SDS011;22847;42.654;23.370;2022-08-01T01:45:45;8.25;;;4.80;;
36931;SDS011;22847;42.654;23.370;2022-08-01T01:48:13;7.15;;;4.40;;
36931;SDS011;22847;42.654;23.370;2022-08-01T01:50:40;4.85;;;4.10;;
36931;SDS011;22847;42.654;23.370;2022-08-01T01:53:07;9.65;;;4.78;;
36931;SDS011;22847;42.654;23.370;2022-08-01T01:55:35;7.45;;;4.32;;
36931;SDS011;22847;42.654;23.370;2022-08-01T01:58:04;6.80;;;4.25;;
36931;SDS011;22847;42.654;23.370;2022-08-01T02:00:31;5.78;;;4.60;;
36931;SDS011;22847;42.654;23.370;2022-08-01T02:02:58;6.15;;;4.40;;
36931;SDS011;22847;42.654;23.370;2022-08-01T02:05:27;5.95;;;4.30;;
36931;SDS011;22847;42.654;23.370;2022-08-01T02:07:53;5.22;;;4.40;;
36931;SDS011;22847;42.654;23.370;2022-08-01T02:10:20;5.60;;;4.75;;
36931;SDS011;22847;42.654;23.370;2022-08-01T02:12:47;4.60;;;4.10;;
36931;SDS011;22847;42.654;23.370;2022-08-01T02:15:15;9.10;;;3.88;;
36931;SDS011;22847;42.654;23.370;2022-08-01T02:17:43;4.88;;;4.20;;
36931;SDS011;22847;42.654;23.370;2022-08-01T02:20:12;4.22;;;3.30;;
36931;SDS011;22847;42.654;23.370;2022-08-01T02:22:52;5.03;;;3.28;;
36931;SDS011;22847;42.654;23.370;2022-08-01T02:28:17;7.88;;;3.75;;
36931;SDS011;22847;42.654;23.370;2022-08-01T02:30:50;4.93;;;3.38;;
36931;SDS011;22847;42.654;23.370;2022-08-01T02:33:16;6.78;;;3.95;;
36931;SDS011;22847;42.654;23.370;2022-08-01T02:35:46;5.32;;;3.90;;
36931;SDS011;22847;42.654;23.370;2022-08-01T02:38:15;6.90;;;4.18;;
36931;SDS011;22847;42.654;23.370;2022-08-01T02:40:43;4.47;;;3.70;;
36931;SDS011;22847;42.654;23.370;2022-08-01T02:43:11;5.80;;;4.10;;
36931;SDS011;22847;42.654;23.370;2022-08-01T02:45:39;4.47;;;3.80;;
36931;SDS011;22847;42.654;23.370;2022-08-01T02:48:09;5.85;;;3.50;;
36931;SDS011;22847;42.654;23.370;2022-08-01T02:50:37;4.68;;;3.40;;
36931;SDS011;22847;42.654;23.370;2022-08-01T02:53:05;6.35;;;3.97;;
36931;SDS011;22847;42.654;23.370;2022-08-01T02:55:35;6.68;;;3.50;;
36931;SDS011;22847;42.654;23.370;2022-08-01T02:58:03;4.97;;;3.83;;
36931;SDS011;22847;42.654;23.370;2022-08-01T03:00:30;3.38;;;3.08;;
36931;SDS011;22847;42.654;23.370;2022-08-01T03:02:57;3.83;;;3.15;;
36931;SDS011;22847;42.654;23.370;2022-08-01T03:05:25;4.95;;;2.78;;
36931;SDS011;22847;42.654;23.370;2022-08-01T03:07:52;6.90;;;2.83;;
36931;SDS011;22847;42.654;23.370;2022-08-01T03:10:20;10.05;;;3.38;;
36931;SDS011;22847;42.654;23.370;2022-08-01T03:12:46;4.50;;;3.33;;
36931;SDS011;22847;42.654;23.370;2022-08-01T03:15:14;11.73;;;2.90;;
36931;SDS011;22847;42.654;23.370;2022-08-01T03:17:42;7.60;;;3.28;;
36931;SDS011;22847;42.654;23.370;2022-08-01T03:20:12;3.72;;;3.25;;
36931;SDS011;22847;42.654;23.370;2022-08-01T03:22:40;7.88;;;3.58;;
36931;SDS011;22847;42.654;23.370;2022-08-01T03:25:08;8.75;;;3.40;;
36931;SDS011;22847;42.654;23.370;2022-08-01T03:27:37;6.05;;;3.50;;
36931;SDS011;22847;42.654;23.370;2022-08-01T03:30:07;5.43;;;3.83;;
36931;SDS011;22847;42.654;23.370;2022-08-01T03:32:32;11.65;;;3.60;;
36931;SDS011;22847;42.654;23.370;2022-08-01T03:34:58;5.60;;;3.65;;
36931;SDS011;22847;42.654;23.370;2022-08-01T03:37:26;5.88;;;3.47;;
36931;SDS011;22847;42.654;23.370;2022-08-01T03:42:47;6.30;;;3.75;;
36931;SDS011;22847;42.654;23.370;2022-08-01T03:45:27;4.13;;;3.45;;
36931;SDS011;22847;42.654;23.370;2022-08-01T03:47:59;6.80;;;3.28;;
36931;SDS011;22847;42.654;23.370;2022-08-01T03:50:26;9.02;;;3.50;;
36931;SDS011;22847;42.654;23.370;2022-08-01T03:52:53;5.55;;;3.08;;
36931;SDS011;22847;42.654;23.370;2022-08-01T03:55:22;7.78;;;4.50;;
36931;SDS011;22847;42.654;23.370;2022-08-01T03:57:49;8.75;;;4.60;;
36931;SDS011;22847;42.654;23.370;2022-08-01T04:00:15;12.57;;;5.22;;
36931;SDS011;22847;42.654;23.370;2022-08-01T04:02:44;6.70;;;5.32;;
36931;SDS011;22847;42.654;23.370;2022-08-01T04:05:11;6.85;;;4.60;;
36931;SDS011;22847;42.654;23.370;2022-08-01T04:07:37;7.75;;;4.40;;
36931;SDS011;22847;42.654;23.370;2022-08-01T04:10:04;7.95;;;4.50;;
36931;SDS011;22847;42.654;23.370;2022-08-01T04:12:30;7.07;;;4.07;;
36931;SDS011;22847;42.654;23.370;2022-08-01T04:14:56;8.23;;;3.92;;
36931;SDS011;22847;42.654;23.370;2022-08-01T04:17:21;6.95;;;3.60;;
36931;SDS011;22847;42.654;23.370;2022-08-01T04:19:47;4.45;;;3.88;;
36931;SDS011;22847;42.654;23.370;2022-08-01T04:22:13;5.47;;;3.60;;
36931;SDS011;22847;42.654;23.370;2022-08-01T04:24:40;13.57;;;3.47;;
36931;SDS011;22847;42.654;23.370;2022-08-01T04:27:11;9.27;;;3.15;;
36931;SDS011;22847;42.654;23.370;2022-08-01T04:29:39;5.15;;;3.28;;
36931;SDS011;22847;42.654;23.370;2022-08-01T04:32:08;4.38;;;3.17;;
36931;SDS011;22847;42.654;23.370;2022-08-01T04:34:37;5.70;;;4.22;;
36931;SDS011;22847;42.654;23.370;2022-08-01T04:37:05;10.30;;;3.58;;
36931;SDS011;22847;42.654;23.370;2022-08-01T04:39:34;9.73;;;3.08;;
36931;SDS011;22847;42.654;23.370;2022-08-01T04:42:01;6.90;;;3.03;;
36931;SDS011;22847;42.654;23.370;2022-08-01T04:44:30;7.80;;;3.40;;
36931;SDS011;22847;42.654;23.370;2022-08-01T04:46:58;6.10;;;3.25;;
36931;SDS011;22847;42.654;23.370;2022-08-01T04:49:25;4.45;;;3.30;;
36931;SDS011;22847;42.654;23.370;2022-08-01T04:51:53;5.93;;;3.75;;
36931;SDS011;22847;42.654;23.370;2022-08-01T04:54:24;10.93;;;4.10;;
36931;SDS011;22847;42.654;23.370;2022-08-01T04:56:54;9.55;;;5.15;;
36931;SDS011;22847;42.654;23.370;2022-08-01T04:59:28;6.88;;;4.35;;
36931;SDS011;22847;42.654;23.370;2022-08-01T05:04:39;9.55;;;4.05;;
36931;SDS011;22847;42.654;23.370;2022-08-01T05:07:06;8.23;;;4.57;;
36931;SDS011;22847;42.654;23.370;2022-08-01T05:09:32;8.07;;;4.68;;
36931;SDS011;22847;42.654;23.370;2022-08-01T05:11:59;10.38;;;4.18;;
36931;SDS011;22847;42.654;23.370;2022-08-01T05:14:26;10.15;;;6.57;;
36931;SDS011;22847;42.654;23.370;2022-08-01T05:16:53;9.77;;;3.70;;
36931;SDS011;22847;42.654;23.370;2022-08-01T05:19:19;10.43;;;4.28;;
36931;SDS011;22847;42.654;23.370;2022-08-01T05:21:45;6.10;;;3.65;;
36931;SDS011;22847;42.654;23.370;2022-08-01T05:24:10;8.02;;;4.13;;
36931;SDS011;22847;42.654;23.370;2022-08-01T05:26:37;8.82;;;4.60;;
36931;SDS011;22847;42.654;23.370;2022-08-01T05:29:03;7.88;;;4.15;;
36931;SDS011;22847;42.654;23.370;2022-08-01T05:31:29;9.20;;;4.55;;
36931;SDS011;22847;42.654;23.370;2022-08-01T05:33:54;17.15;;;6.97;;
36931;SDS011;22847;42.654;23.370;2022-08-01T05:36:19;7.22;;;4.13;;
36931;SDS011;22847;42.654;23.370;2022-08-01T05:38:45;10.30;;;3.70;;
36931;SDS011;22847;42.654;23.370;2022-08-01T05:41:10;8.80;;;3.70;;
36931;SDS011;22847;42.654;23.370;2022-08-01T05:43:36;10.55;;;3.95;;
36931;SDS011;22847;42.654;23.370;2022-08-01T05:46:01;11.85;;;6.13;;
36931;SDS011;22847;42.654;23.370;2022-08-01T05:48:27;20.30;;;5.78;;
36931;SDS011;22847;42.654;23.370;2022-08-01T05:50:53;15.27;;;5.30;;
36931;SDS011;22847;42.654;23.370;2022-08-01T05:53:19;10.60;;;4.07;;
36931;SDS011;22847;42.654;23.370;2022-08-01T05:55:44;9.32;;;5.00;;
36931;SDS011;22847;42.654;23.370;2022-08-01T05:58:10;8.15;;;4.13;;
36931;SDS011;22847;42.654;23.370;2022-08-01T06:00:35;8.85;;;6.50;;
36931;SDS011;22847;42.654;23.370;2022-08-01T06:03:01;7.30;;;3.10;;
36931;SDS011;22847;42.654;23.370;2022-08-01T06:05:26;8.10;;;3.40;;
36931;SDS011;22847;42.654;23.370;2022-08-01T06:07:52;5.22;;;2.92;;
36931;SDS011;22847;42.654;23.370;2022-08-01T06:10:17;9.60;;;3.17;;
36931;SDS011;22847;42.654;23.370;2022-08-01T06:12:43;4.50;;;2.65;;
36931;SDS011;22847;42.654;23.370;2022-08-01T06:15:08;10.32;;;3.05;;
36931;SDS011;22847;42.654;23.370;2022-08-01T06:17:34;8.07;;;2.30;;
36931;SDS011;22847;42.654;23.370;2022-08-01T06:20:00;3.67;;;2.00;;
36931;SDS011;22847;42.654;23.370;2022-08-01T06:22:25;5.85;;;2.33;;
36931;SDS011;22847;42.654;23.370;2022-08-01T06:24:51;4.05;;;2.25;;
36931;SDS011;22847;42.654;23.370;2022-08-01T06:27:16;2.22;;;1.83;;
36931;SDS011;22847;42.654;23.370;2022-08-01T06:29:42;4.30;;;1.83;;
36931;SDS011;22847;42.654;23.370;2022-08-01T06:32:08;3.67;;;2.25;;
36931;SDS011;22847;42.654;23.370;2022-08-01T06:34:34;4.13;;;2.20;;
36931;SDS011;22847;42.654;23.370;2022-08-01T06:37:00;6.15;;;2.00;;
36931;SDS011;22847;42.654;23.370;2022-08-01T06:39:25;5.45;;;2.60;;
36931;SDS011;22847;42.654;23.370;2022-08-01T06:41:51;2.97;;;2.03;;
36931;SDS011;22847;42.654;23.370;2022-08-01T06:44:16;4.93;;;1.92;;
36931;SDS011;22847;42.654;23.370;2022-08-01T06:46:42;7.43;;;2.40;;
36931;SDS011;22847;42.654;23.370;2022-08-01T06:49:07;4.50;;;2.08;;
36931;SDS011;22847;42.654;23.370;2022-08-01T06:51:33;3.78;;;2.25;;
36931;SDS011;22847;42.654;23.370;2022-08-01T06:53:58;4.65;;;2.47;;
36931;SDS011;22847;42.654;23.370;2022-08-01T06:56:23;8.60;;;2.08;;
36931;SDS011;22847;42.654;23.370;2022-08-01T06:58:49;4.43;;;2.58;;
36931;SDS011;22847;42.654;23.370;2022-08-01T07:01:15;6.22;;;2.85;;
36931;SDS011;22847;42.654;23.370;2022-08-01T07:03:41;10.85;;;2.97;;
36931;SDS011;22847;42.654;23.370;2022-08-01T07:06:06;3.90;;;2.40;;
36931;SDS011;22847;42.654;23.370;2022-08-01T07:08:31;4.00;;;2.47;;
36931;SDS011;22847;42.654;23.370;2022-08-01T07:10:57;6.32;;;2.78;;
36931;SDS011;22847;42.654;23.370;2022-08-01T07:13:25;2.42;;;2.22;;
36931;SDS011;22847;42.654;23.370;2022-08-01T07:15:51;4.90;;;2.42;;
36931;SDS011;22847;42.654;23.370;2022-08-01T07:18:17;3.50;;;2.67;;
36931;SDS011;22847;42.654;23.370;2022-08-01T07:20:43;6.35;;;2.70;;
36931;SDS011;22847;42.654;23.370;2022-08-01T07:23:12;6.10;;;2.50;;
36931;SDS011;22847;42.654;23.370;2022-08-01T07:25:38;6.95;;;2.70;;
36931;SDS011;22847;42.654;23.370;2022-08-01T07:28:04;4.50;;;2.58;;
36931;SDS011;22847;42.654;23.370;2022-08-01T07:30:29;5.03;;;2.55;;
36931;SDS011;22847;42.654;23.370;2022-08-01T07:32:55;4.72;;;2.28;;
36931;SDS011;22847;42.654;23.370;2022-08-01T07:35:21;7.70;;;2.42;;
36931;SDS011;22847;42.654;23.370;2022-08-01T07:37:46;8.27;;;2.67;;
36931;SDS011;22847;42.654;23.370;2022-08-01T07:40:12;5.20;;;2.70;;
36931;SDS011;22847;42.654;23.370;2022-08-01T07:42:38;8.15;;;2.38;;
36931;SDS011;22847;42.654;23.370;2022-08-01T07:45:03;13.30;;;2.78;;
36931;SDS011;22847;42.654;23.370;2022-08-01T07:47:29;3.25;;;2.42;;
36931;SDS011;22847;42.654;23.370;2022-08-01T07:50:01;6.38;;;2.40;;
36931;SDS011;22847;42.654;23.370;2022-08-01T07:52:28;5.38;;;2.65;;
36931;SDS011;22847;42.654;23.370;2022-08-01T07:54:55;2.95;;;2.03;;
36931;SDS011;22847;42.654;23.370;2022-08-01T07:57:21;3.42;;;2.33;;
36931;SDS011;22847;42.654;23.370;2022-08-01T07:59:47;4.25;;;2.20;;
36931;SDS011;22847;42.654;23.370;2022-08-01T08:02:12;4.90;;;2.53;;
36931;SDS011;22847;42.654;23.370;2022-08-01T08:04:38;5.00;;;2.53;;
36931;SDS011;22847;42.654;23.370;2022-08-01T08:07:03;2.30;;;2.10;;
36931;SDS011;22847;42.654;23.370;2022-08-01T08:09:29;2.45;;;2.20;;
36931;SDS011;22847;42.654;23.370;2022-08-01T08:11:54;3.90;;;2.30;;
36931;SDS011;22847;42.654;23.370;2022-08-01T08:14:20;4.70;;;2.30;;
36931;SDS011;22847;42.654;23.370;2022-08-01T08:16:47;5.13;;;2.50;;
36931;SDS011;22847;42.654;23.370;2022-08-01T08:19:13;5.68;;;3.33;;
36931;SDS011;22847;42.654;23.370;2022-08-01T08:21:39;4.00;;;2.85;;
36931;SDS011;22847;42.654;23.370;2022-08-01T08:24:05;6.47;;;3.20;;
36931;SDS011;22847;42.654;23.370;2022-08-01T08:26:47;4.78;;;3.25;;
36931;SDS011;22847;42.654;23.370;2022-08-01T08:29:13;4.97;;;3.13;;
36931;SDS011;22847;42.654;23.370;2022-08-01T08:31:39;4.53;;;2.30;;
36931;SDS011;22847;42.654;23.370;2022-08-01T08:34:05;8.70;;;3.00;;
36931;SDS011;22847;42.654;23.370;2022-08-01T08:36:30;6.25;;;2.65;;
36931;SDS011;22847;42.654;23.370;2022-08-01T08:38:56;7.03;;;2.65;;
36931;SDS011;22847;42.654;23.370;2022-08-01T08:41:21;6.60;;;2.58;;
36931;SDS011;22847;42.654;23.370;2022-08-01T08:43:47;2.95;;;2.30;;
36931;SDS011;22847;42.654;23.370;2022-08-01T08:46:13;7.63;;;3.05;;
36931;SDS011;22847;42.654;23.370;2022-08-01T08:48:40;8.20;;;2.20;;
36931;SDS011;22847;42.654;23.370;2022-08-01T08:51:07;6.35;;;2.50;;
36931;SDS011;22847;42.654;23.370;2022-08-01T08:53:36;4.30;;;2.63;;
36931;SDS011;22847;42.654;23.370;2022-08-01T08:56:03;3.58;;;2.47;;
36931;SDS011;22847;42.654;23.370;2022-08-01T08:58:31;3.53;;;2.17;;
36931;SDS011;22847;42.654;23.370;2022-08-01T09:01:02;3.30;;;2.08;;
36931;SDS011;22847;42.654;23.370;2022-08-01T09:03:32;3.40;;;2.22;;
36931;SDS011;22847;42.654;23.370;2022-08-01T09:05:58;3.60;;;2.42;;
36931;SDS011;22847;42.654;23.370;2022-08-01T09:08:23;8.05;;;2.33;;
36931;SDS011;22847;42.654;23.370;2022-08-01T09:10:48;2.78;;;2.00;;
36931;SDS011;22847;42.654;23.370;2022-08-01T09:13:14;7.68;;;2.50;;
36931;SDS011;22847;42.654;23.370;2022-08-01T09:15:41;2.55;;;2.00;;
36931;SDS011;22847;42.654;23.370;2022-08-01T09:18:23;4.65;;;2.38;;
36931;SDS011;22847;42.654;23.370;2022-08-01T09:23:49;3.60;;;2.10;;
36931;SDS011;22847;42.654;23.370;2022-08-01T09:26:17;3.78;;;1.95;;
36931;SDS011;22847;42.654;23.370;2022-08-01T09:28:45;4.18;;;2.58;;
36931;SDS011;22847;42.654;23.370;2022-08-01T09:31:14;5.95;;;2.38;;
36931;SDS011;22847;42.654;23.370;2022-08-01T09:33:48;5.28;;;2.13;;
36931;SDS011;22847;42.654;23.370;2022-08-01T09:38:41;3.90;;;2.08;;
36931;SDS011;22847;42.654;23.370;2022-08-01T09:41:06;3.65;;;1.83;;
36931;SDS011;22847;42.654;23.370;2022-08-01T09:43:32;7.30;;;2.55;;
36931;SDS011;22847;42.654;23.370;2022-08-01T09:45:59;7.97;;;2.10;;
36931;SDS011;22847;42.654;23.370;2022-08-01T09:48:29;2.78;;;1.85;;
36931;SDS011;22847;42.654;23.370;2022-08-01T09:50:57;9.25;;;2.45;;
36931;SDS011;22847;42.654;23.370;2022-08-01T09:53:23;3.65;;;2.08;;
36931;SDS011;22847;42.654;23.370;2022-08-01T09:55:48;6.13;;;2.13;;
36931;SDS011;22847;42.654;23.370;2022-08-01T09:58:17;4.78;;;2.45;;
36931;SDS011;22847;42.654;23.370;2022-08-01T10:00:44;2.70;;;1.73;;
36931;SDS011;22847;42.654;23.370;2022-08-01T10:03:28;5.25;;;2.00;;
36931;SDS011;22847;42.654;23.370;2022-08-01T10:05:54;6.03;;;2.80;;
36931;SDS011;22847;42.654;23.370;2022-08-01T10:08:22;6.40;;;2.55;;
36931;SDS011;22847;42.654;23.370;2022-08-01T10:11:09;3.35;;;2.42;;
36931;SDS011;22847;42.654;23.370;2022-08-01T10:13:36;4.45;;;2.25;;
36931;SDS011;22847;42.654;23.370;2022-08-01T10:16:02;5.22;;;2.72;;
36931;SDS011;22847;42.654;23.370;2022-08-01T10:18:30;3.85;;;2.47;;
36931;SDS011;22847;42.654;23.370;2022-08-01T10:21:00;2.92;;;2.50;;
36931;SDS011;22847;42.654;23.370;2022-08-01T10:23:30;3.58;;;2.60;;
36931;SDS011;22847;42.654;23.370;2022-08-01T10:25:58;4.18;;;2.45;;
36931;SDS011;22847;42.654;23.370;2022-08-01T10:28:26;3.97;;;2.40;;
36931;SDS011;22847;42.654;23.370;2022-08-01T10:30:54;3.35;;;2.08;;
36931;SDS011;22847;42.654;23.370;2022-08-01T10:33:25;3.00;;;2.10;;
36931;SDS011;22847;42.654;23.370;2022-08-01T10:35:50;3.28;;;2.50;;
36931;SDS011;22847;42.654;23.370;2022-08-01T10:38:16;4.00;;;1.95;;
36931;SDS011;22847;42.654;23.370;2022-08-01T10:40:42;5.65;;;2.30;;
36931;SDS011;22847;42.654;23.370;2022-08-01T10:43:11;2.78;;;2.17;;
36931;SDS011;22847;42.654;23.370;2022-08-01T10:45:39;3.78;;;2.25;;
36931;SDS011;22847;42.654;23.370;2022-08-01T10:48:41;5.63;;;3.10;;
36931;SDS011;22847;42.654;23.370;2022-08-01T10:51:08;7.28;;;2.20;;
36931;SDS011;22847;42.654;23.370;2022-08-01T10:53:33;12.75;;;2.60;;
36931;SDS011;22847;42.654;23.370;2022-08-01T10:56:00;4.05;;;2.30;;
36931;SDS011;22847;42.654;23.370;2022-08-01T10:58:30;3.10;;;1.65;;
36931;SDS011;22847;42.654;23.370;2022-08-01T11:03:40;7.38;;;1.92;;
36931;SDS011;22847;42.654;23.370;2022-08-01T11:06:07;2.50;;;2.05;;
36931;SDS011;22847;42.654;23.370;2022-08-01T11:11:07;5.60;;;2.05;;
36931;SDS011;22847;42.654;23.370;2022-08-01T11:14:18;2.65;;;2.30;;
36931;SDS011;22847;42.654;23.370;2022-08-01T11:16:38;2.65;;;1.77;;
36931;SDS011;22847;42.654;23.370;2022-08-01T11:19:05;5.22;;;2.10;;
36931;SDS011;22847;42.654;23.370;2022-08-01T11:35:19;3.10;;;2.20;;
36931;SDS011;22847;42.654;23.370;2022-08-01T11:37:53;3.67;;;1.58;;
36931;SDS011;22847;42.654;23.370;2022-08-01T11:40:24;4.95;;;2.30;;
36931;SDS011;22847;42.654;23.370;2022-08-01T11:48:23;5.38;;;2.20;;
36931;SDS011;22847;42.654;23.370;2022-08-01T11:50:50;4.68;;;1.98;;
36931;SDS011;22847;42.654;23.370;2022-08-01T11:53:17;4.15;;;2.00;;
36931;SDS011;22847;42.654;23.370;2022-08-01T11:55:50;3.20;;;1.90;;
36931;SDS011;22847;42.654;23.370;2022-08-01T11:58:22;4.27;;;2.10;;
36931;SDS011;22847;42.654;23.370;2022-08-01T12:00:56;2.97;;;2.67;;
36931;SDS011;22847;42.654;23.370;2022-08-01T12:03:26;2.30;;;2.10;;
36931;SDS011;22847;42.654;23.370;2022-08-01T12:05:54;5.93;;;2.28;;
36931;SDS011;22847;42.654;23.370;2022-08-01T12:08:24;3.38;;;2.20;;
36931;SDS011;22847;42.654;23.370;2022-08-01T12:10:54;5.10;;;2.20;;
36931;SDS011;22847;42.654;23.370;2022-08-01T12:13:19;3.65;;;2.50;;
36931;SDS011;22847;42.654;23.370;2022-08-01T12:15:46;4.13;;;2.30;;
36931;SDS011;22847;42.654;23.370;2022-08-01T12:18:12;4.20;;;2.13;;
36931;SDS011;22847;42.654;23.370;2022-08-01T12:20:39;2.97;;;2.22;;
36931;SDS011;22847;42.654;23.370;2022-08-01T12:23:08;4.22;;;2.22;;
36931;SDS011;22847;42.654;23.370;2022-08-01T12:25:37;3.72;;;2.35;;
36931;SDS011;22847;42.654;23.370;2022-08-01T12:28:09;5.88;;;2.70;;
36931;SDS011;22847;42.654;23.370;2022-08-01T12:30:36;5.80;;;2.50;;
36931;SDS011;22847;42.654;23.370;2022-08-01T12:33:04;5.25;;;2.53;;
36931;SDS011;22847;42.654;23.370;2022-08-01T12:35:31;4.03;;;2.83;;
36931;SDS011;22847;42.654;23.370;2022-08-01T12:37:58;3.28;;;2.60;;
36931;SDS011;22847;42.654;23.370;2022-08-01T12:40:30;3.30;;;2.45;;
36931;SDS011;22847;42.654;23.370;2022-08-01T12:43:00;6.10;;;2.70;;
36931;SDS011;22847;42.654;23.370;2022-08-01T12:48:01;4.38;;;2.40;;
36931;SDS011;22847;42.654;23.370;2022-08-01T12:50:30;3.10;;;2.13;;
36931;SDS011;22847;42.654;23.370;2022-08-01T12:52:57;3.08;;;2.40;;
36931;SDS011;22847;42.654;23.370;2022-08-01T12:55:24;4.80;;;2.50;;
36931;SDS011;22847;42.654;23.370;2022-08-01T12:58:03;3.38;;;2.92;;
36931;SDS011;22847;42.654;23.370;2022-08-01T13:00:30;4.07;;;2.40;;
36931;SDS011;22847;42.654;23.370;2022-08-01T13:05:41;7.13;;;3.13;;
36931;SDS011;22847;42.654;23.370;2022-08-01T13:08:09;5.75;;;3.30;;
36931;SDS011;22847;42.654;23.370;2022-08-01T13:10:38;7.80;;;3.08;;
36931;SDS011;22847;42.654;23.370;2022-08-01T13:13:04;4.60;;;3.15;;
36931;SDS011;22847;42.654;23.370;2022-08-01T13:15:31;4.78;;;3.13;;
36931;SDS011;22847;42.654;23.370;2022-08-01T13:17:59;4.22;;;2.42;;
36931;SDS011;22847;42.654;23.370;2022-08-01T13:20:31;3.25;;;2.58;;
36931;SDS011;22847;42.654;23.370;2022-08-01T13:23:17;7.68;;;2.60;;
36931;SDS011;22847;42.654;23.370;2022-08-01T13:25:48;8.55;;;2.45;;
36931;SDS011;22847;42.654;23.370;2022-08-01T13:28:14;2.40;;;2.13;;
36931;SDS011;22847;42.654;23.370;2022-08-01T13:30:54;4.53;;;2.53;;
36931;SDS011;22847;42.654;23.370;2022-08-01T13:33:21;3.00;;;2.55;;
36931;SDS011;22847;42.654;23.370;2022-08-01T13:35:49;2.50;;;2.30;;
36931;SDS011;22847;42.654;23.370;2022-08-01T13:38:15;5.28;;;2.20;;
36931;SDS011;22847;42.654;23.370;2022-08-01T13:40:41;3.75;;;2.33;;
36931;SDS011;22847;42.654;23.370;2022-08-01T13:43:06;3.67;;;2.72;;
36931;SDS011;22847;42.654;23.370;2022-08-01T13:45:32;5.10;;;2.65;;
36931;SDS011;22847;42.654;23.370;2022-08-01T13:47:59;4.22;;;2.70;;
36931;SDS011;22847;42.654;23.370;2022-08-01T13:50:24;3.03;;;2.60;;
36931;SDS011;22847;42.654;23.370;2022-08-01T13:52:50;3.50;;;2.60;;
36931;SDS011;22847;42.654;23.370;2022-08-01T13:55:15;6.15;;;2.97;;
36931;SDS011;22847;42.654;23.370;2022-08-01T13:57:40;3.28;;;2.75;;
36931;SDS011;22847;42.654;23.370;2022-08-01T14:00:07;2.88;;;2.20;;
36931;SDS011;22847;42.654;23.370;2022-08-01T14:02:35;2.55;;;2.35;;
36931;SDS011;22847;42.654;23.370;2022-08-01T14:05:01;2.60;;;2.30;;
36931;SDS011;22847;42.654;23.370;2022-08-01T14:07:27;2.95;;;2.38;;
36931;SDS011;22847;42.654;23.370;2022-08-01T14:09:52;3.65;;;2.25;;
36931;SDS011;22847;42.654;23.370;2022-08-01T14:12:18;5.43;;;2.20;;
36931;SDS011;22847;42.654;23.370;2022-08-01T14:14:43;2.38;;;2.15;;
36931;SDS011;22847;42.654;23.370;2022-08-01T14:17:09;2.30;;;2.10;;
36931;SDS011;22847;42.654;23.370;2022-08-01T14:19:34;4.45;;;2.40;;
36931;SDS011;22847;42.654;23.370;2022-08-01T14:22:00;4.07;;;2.42;;
36931;SDS011;22847;42.654;23.370;2022-08-01T14:24:26;2.53;;;2.25;;
36931;SDS011;22847;42.654;23.370;2022-08-01T14:26:52;6.05;;;2.67;;
36931;SDS011;22847;42.654;23.370;2022-08-01T14:29:17;5.60;;;3.05;;
36931;SDS011;22847;42.654;23.370;2022-08-01T14:31:43;4.35;;;2.72;;
36931;SDS011;22847;42.654;23.370;2022-08-01T14:34:08;6.07;;;2.53;;
36931;SDS011;22847;42.654;23.370;2022-08-01T14:36:34;2.92;;;2.38;;
36931;SDS011;22847;42.654;23.370;2022-08-01T14:38:59;3.92;;;2.97;;
36931;SDS011;22847;42.654;23.370;2022-08-01T14:41:25;2.83;;;2.38;;
36931;SDS011;22847;42.654;23.370;2022-08-01T14:43:50;3.72;;;2.40;;
36931;SDS011;22847;42.654;23.370;2022-08-01T14:46:16;4.95;;;2.67;;
36931;SDS011;22847;42.654;23.370;2022-08-01T14:48:41;4.43;;;3.00;;
36931;SDS011;22847;42.654;23.370;2022-08-01T14:51:07;6.75;;;2.40;;
36931;SDS011;22847;42.654;23.370;2022-08-01T14:53:33;3.83;;;2.47;;
36931;SDS011;22847;42.654;23.370;2022-08-01T14:56:00;3.40;;;2.55;;
36931;SDS011;22847;42.654;23.370;2022-08-01T14:58:26;5.40;;;3.72;;
36931;SDS011;22847;42.654;23.370;2022-08-01T15:00:51;4.35;;;2.75;;
36931;SDS011;22847;42.654;23.370;2022-08-01T15:03:20;3.80;;;3.40;;
36931;SDS011;22847;42.654;23.370;2022-08-01T15:05:47;4.07;;;3.53;;
36931;SDS011;22847;42.654;23.370;2022-08-01T15:08:12;6.00;;;2.22;;
36931;SDS011;22847;42.654;23.370;2022-08-01T15:10:37;4.15;;;2.42;;
36931;SDS011;22847;42.654;23.370;2022-08-01T15:13:03;3.90;;;2.92;;
36931;SDS011;22847;42.654;23.370;2022-08-01T15:15:28;4.55;;;3.53;;
36931;SDS011;22847;42.654;23.370;2022-08-01T15:17:54;4.55;;;2.78;;
36931;SDS011;22847;42.654;23.370;2022-08-01T15:20:19;4.35;;;3.28;;
36931;SDS011;22847;42.654;23.370;2022-08-01T15:22:45;6.10;;;2.78;;
36931;SDS011;22847;42.654;23.370;2022-08-01T15:25:10;4.20;;;1.95;;
36931;SDS011;22847;42.654;23.370;2022-08-01T15:27:36;6.75;;;2.63;;